createdAt,value
2022-09-22T00:00:30.407Z,0
2022-09-22T00:01:30.550Z,0
2022-09-22T00:02:30.492Z,0
2022-09-22T00:03:30.422Z,0
2022-09-22T00:04:30.397Z,0
2022-09-22T00:05:30.453Z,0
2022-09-22T00:06:30.413Z,0
2022-09-22T00:07:30.404Z,0
2022-09-22T00:08:30.612Z,0
2022-09-22T00:09:30.416Z,0
2022-09-22T00:10:30.438Z,0
2022-09-22T00:11:30.390Z,0
2022-09-22T00:12:30.405Z,0
2022-09-22T00:13:30.411Z,0
2022-09-22T00:14:30.401Z,0
2022-09-22T00:15:30.414Z,0
2022-09-22T00:16:30.446Z,0
2022-09-22T00:17:30.397Z,0
2022-09-22T00:18:30.436Z,0
2022-09-22T00:19:30.406Z,0
2022-09-22T00:20:30.396Z,0
2022-09-22T00:21:30.403Z,0
2022-09-22T00:22:30.397Z,0
2022-09-22T00:23:30.424Z,0
2022-09-22T00:24:30.399Z,0
2022-09-22T00:25:30.407Z,0
2022-09-22T00:26:30.386Z,0
2022-09-22T00:27:30.413Z,0
2022-09-22T00:28:30.449Z,0
2022-09-22T00:29:30.427Z,0
2022-09-22T00:30:30.429Z,0
2022-09-22T00:31:30.528Z,0
2022-09-22T00:32:30.405Z,0
2022-09-22T00:33:30.415Z,0
2022-09-22T00:34:30.410Z,0
2022-09-22T00:35:30.405Z,0
2022-09-22T00:36:30.410Z,0
2022-09-22T00:37:30.411Z,0
2022-09-22T00:38:30.421Z,0
2022-09-22T00:39:30.407Z,0
2022-09-22T00:40:30.456Z,0
2022-09-22T00:41:30.412Z,0
2022-09-22T00:42:30.406Z,0
2022-09-22T00:43:30.415Z,0
2022-09-22T00:44:30.404Z,0
2022-09-22T00:45:30.418Z,0
2022-09-22T00:46:30.479Z,0
2022-09-22T00:47:30.404Z,0
2022-09-22T00:48:30.415Z,0
2022-09-22T00:49:30.409Z,0
2022-09-22T00:50:30.416Z,0
2022-09-22T00:51:30.411Z,0
2022-09-22T00:52:30.402Z,0
2022-09-22T00:53:30.415Z,0
2022-09-22T00:54:30.401Z,0
2022-09-22T00:55:30.410Z,0
2022-09-22T00:56:30.410Z,0
2022-09-22T00:57:30.420Z,0
2022-09-22T00:58:30.424Z,0
2022-09-22T00:59:30.398Z,0
2022-09-22T01:00:30.467Z,0
2022-09-22T01:01:30.445Z,0
2022-09-22T01:02:30.407Z,0
2022-09-22T01:03:30.412Z,0
2022-09-22T01:04:30.408Z,0
2022-09-22T01:05:30.418Z,0
2022-09-22T01:06:30.407Z,0
2022-09-22T01:07:30.402Z,0
2022-09-22T01:08:30.415Z,0
2022-09-22T01:09:30.409Z,0
2022-09-22T01:10:30.414Z,0
2022-09-22T01:11:30.408Z,0
2022-09-22T01:12:30.408Z,0
2022-09-22T01:13:30.428Z,0
2022-09-22T01:14:30.413Z,0
2022-09-22T01:15:30.430Z,0
2022-09-22T01:16:30.438Z,0
2022-09-22T01:17:30.403Z,0
2022-09-22T01:18:30.419Z,0
2022-09-22T01:19:30.405Z,0
2022-09-22T01:20:30.424Z,0
2022-09-22T01:21:30.396Z,0
2022-09-22T01:22:30.406Z,0
2022-09-22T01:23:30.419Z,0
2022-09-22T01:24:30.401Z,0
2022-09-22T01:25:30.405Z,0
2022-09-22T01:26:30.398Z,0
2022-09-22T01:27:30.405Z,0
2022-09-22T01:28:30.412Z,0
2022-09-22T01:29:30.408Z,0
2022-09-22T01:30:30.413Z,0
2022-09-22T01:31:30.433Z,0
2022-09-22T01:32:30.397Z,0
2022-09-22T01:33:30.433Z,0
2022-09-22T01:34:30.407Z,0
2022-09-22T01:35:30.399Z,0
2022-09-22T01:36:30.404Z,0
2022-09-22T01:37:30.408Z,0
2022-09-22T01:38:30.409Z,0
2022-09-22T01:39:30.389Z,0
2022-09-22T01:40:30.454Z,0
2022-09-22T01:41:30.404Z,0
2022-09-22T01:42:30.414Z,0
2022-09-22T01:43:30.420Z,0
2022-09-22T01:44:30.405Z,0
2022-09-22T01:45:30.402Z,0
2022-09-22T01:46:30.453Z,0
2022-09-22T01:47:30.418Z,0
2022-09-22T01:48:30.418Z,0
2022-09-22T01:49:30.424Z,0
2022-09-22T01:50:30.415Z,0
2022-09-22T01:51:30.410Z,0
2022-09-22T01:52:30.408Z,0
2022-09-22T01:53:30.431Z,0
2022-09-22T01:54:30.404Z,0
2022-09-22T01:55:30.433Z,0
2022-09-22T01:56:30.406Z,0
2022-09-22T01:57:30.419Z,0
2022-09-22T01:58:30.415Z,0
2022-09-22T01:59:30.472Z,0
2022-09-22T02:00:30.399Z,0
2022-09-22T02:01:30.492Z,0
2022-09-22T02:02:30.598Z,0
2022-09-22T02:03:30.416Z,0
2022-09-22T02:04:30.407Z,0
2022-09-22T02:05:30.424Z,0
2022-09-22T02:06:30.411Z,0
2022-09-22T02:07:30.413Z,0
2022-09-22T02:08:30.436Z,0
2022-09-22T02:09:30.402Z,0
2022-09-22T02:10:30.416Z,0
2022-09-22T02:11:30.403Z,0
2022-09-22T02:12:30.415Z,0
2022-09-22T02:13:30.452Z,0
2022-09-22T02:14:30.412Z,0
2022-09-22T02:15:30.480Z,0
2022-09-22T02:16:30.407Z,0
2022-09-22T02:17:34.923Z,0
2022-09-22T02:18:30.410Z,0
2022-09-22T02:19:30.411Z,0
2022-09-22T02:20:30.401Z,0
2022-09-22T02:21:30.412Z,0
2022-09-22T02:22:30.409Z,0
2022-09-22T02:26:30.428Z,0
2022-09-22T02:27:30.417Z,0
2022-09-22T02:28:30.409Z,0
2022-09-22T02:29:30.425Z,0
2022-09-22T02:30:30.402Z,0
2022-09-22T02:31:30.435Z,0
2022-09-22T02:32:30.415Z,0
2022-09-22T02:33:32.902Z,0
2022-09-22T02:34:30.410Z,0
2022-09-22T02:35:30.419Z,0
2022-09-22T02:36:30.405Z,0
2022-09-22T02:37:30.474Z,0
2022-09-22T02:38:30.407Z,0
2022-09-22T02:39:30.414Z,0
2022-09-22T02:40:30.554Z,0
2022-09-22T02:41:30.415Z,0
2022-09-22T02:42:30.418Z,0
2022-09-22T02:43:30.410Z,0
2022-09-22T02:44:30.419Z,0
2022-09-22T02:45:30.408Z,0
2022-09-22T02:46:30.482Z,0
2022-09-22T02:47:30.395Z,0
2022-09-22T02:48:30.409Z,0
2022-09-22T02:49:30.435Z,0
2022-09-22T02:50:30.453Z,0
2022-09-22T02:51:30.411Z,0
2022-09-22T02:52:30.412Z,0
2022-09-22T02:53:30.409Z,0
2022-09-22T02:54:30.417Z,0
2022-09-22T02:55:30.427Z,0
2022-09-22T02:56:30.428Z,0
2022-09-22T02:57:30.414Z,0
2022-09-22T02:58:30.405Z,0
2022-09-22T02:59:30.431Z,0
2022-09-22T03:00:30.412Z,0
2022-09-22T03:01:30.464Z,0
2022-09-22T03:02:30.409Z,0
2022-09-22T03:03:30.417Z,0
2022-09-22T03:04:30.470Z,0
2022-09-22T03:05:30.418Z,0
2022-09-22T03:06:30.406Z,0
2022-09-22T03:07:30.416Z,0
2022-09-22T03:08:30.410Z,0
2022-09-22T03:09:30.431Z,0
2022-09-22T03:10:30.410Z,0
2022-09-22T03:11:30.434Z,0
2022-09-22T03:12:30.414Z,0
2022-09-22T03:13:30.414Z,0
2022-09-22T03:14:30.470Z,0
2022-09-22T03:15:30.534Z,0
2022-09-22T03:16:30.413Z,0
2022-09-22T03:17:30.408Z,0
2022-09-22T03:18:30.418Z,0
2022-09-22T03:19:30.425Z,0
2022-09-22T03:20:30.412Z,0
2022-09-22T03:21:30.415Z,0
2022-09-22T03:22:30.408Z,0
2022-09-22T03:23:30.425Z,0
2022-09-22T03:24:30.422Z,0
2022-09-22T03:25:30.413Z,0
2022-09-22T03:26:30.421Z,0
2022-09-22T03:27:30.408Z,0
2022-09-22T03:28:30.407Z,0
2022-09-22T03:29:30.424Z,0
2022-09-22T03:30:30.450Z,0
2022-09-22T03:31:30.417Z,0
2022-09-22T03:32:30.414Z,0
2022-09-22T03:33:30.414Z,0
2022-09-22T03:34:30.420Z,0
2022-09-22T03:35:30.426Z,0
2022-09-22T03:36:30.404Z,0
2022-09-22T03:37:30.464Z,0
2022-09-22T03:38:30.412Z,0
2022-09-22T03:39:30.417Z,0
2022-09-22T03:40:30.509Z,0
2022-09-22T03:41:30.414Z,0
2022-09-22T03:42:30.417Z,0
2022-09-22T03:43:30.433Z,0
2022-09-22T03:44:30.419Z,0
2022-09-22T03:45:30.399Z,0
2022-09-22T03:46:30.476Z,0
2022-09-22T03:47:30.428Z,0
2022-09-22T03:48:30.427Z,0
2022-09-22T03:49:30.424Z,0
2022-09-22T03:50:30.399Z,0
2022-09-22T03:51:30.409Z,0
2022-09-22T03:52:30.392Z,0
2022-09-22T03:53:30.414Z,0
2022-09-22T03:54:30.430Z,0
2022-09-22T03:55:30.429Z,0
2022-09-22T03:56:30.432Z,0
2022-09-22T03:57:30.408Z,0
2022-09-22T03:58:30.408Z,0
2022-09-22T03:59:30.423Z,0
2022-09-22T04:00:30.406Z,0
2022-09-22T04:01:30.526Z,0
2022-09-22T04:02:30.448Z,0
2022-09-22T04:03:30.416Z,0
2022-09-22T04:04:30.425Z,0
2022-09-22T04:05:30.416Z,0
2022-09-22T04:06:30.417Z,0
2022-09-22T04:07:30.416Z,0
2022-09-22T04:08:30.407Z,0
2022-09-22T04:09:30.429Z,0
2022-09-22T04:10:30.411Z,0
2022-09-22T04:11:30.424Z,0
2022-09-22T04:12:30.405Z,0
2022-09-22T04:13:30.414Z,0
2022-09-22T04:14:30.414Z,0
2022-09-22T04:15:30.407Z,0
2022-09-22T04:16:30.487Z,0
2022-09-22T04:17:30.410Z,0
2022-09-22T04:18:30.421Z,0
2022-09-22T04:19:30.416Z,0
2022-09-22T04:20:30.413Z,0
2022-09-22T04:21:30.416Z,0
2022-09-22T04:22:30.411Z,1
2022-09-22T04:23:30.416Z,1
2022-09-22T04:24:30.425Z,3
2022-09-22T04:25:30.414Z,5
2022-09-22T04:26:30.419Z,5
2022-09-22T04:27:30.412Z,7
2022-09-22T04:28:30.409Z,9
2022-09-22T04:29:30.413Z,11
2022-09-22T04:30:30.437Z,12
2022-09-22T04:31:30.411Z,14
2022-09-22T04:32:30.418Z,14
2022-09-22T04:33:30.407Z,14
2022-09-22T04:34:30.431Z,14
2022-09-22T04:35:30.408Z,16
2022-09-22T04:36:30.416Z,18
2022-09-22T04:37:30.420Z,22
2022-09-22T04:38:30.412Z,23
2022-09-22T04:39:30.417Z,25
2022-09-22T04:40:30.499Z,31
2022-09-22T04:41:30.426Z,40
2022-09-22T04:42:30.412Z,51
2022-09-22T04:43:30.404Z,62
2022-09-22T04:44:34.782Z,71
2022-09-22T04:45:30.403Z,81
2022-09-22T04:46:30.523Z,95
2022-09-22T04:47:30.411Z,114
2022-09-22T04:48:30.407Z,136
2022-09-22T04:49:30.436Z,154
2022-09-22T04:50:30.405Z,178
2022-09-22T04:51:30.416Z,199
2022-09-22T04:52:30.417Z,224
2022-09-22T04:53:30.411Z,254
2022-09-22T04:54:30.427Z,280
2022-09-22T04:55:30.433Z,311
2022-09-22T04:56:30.447Z,329
2022-09-22T04:57:30.409Z,352
2022-09-22T04:58:30.402Z,381
2022-09-22T04:59:30.422Z,412
2022-09-22T05:00:30.435Z,435
2022-09-22T05:01:30.509Z,455
2022-09-22T05:02:30.399Z,486
2022-09-22T05:03:30.459Z,503
2022-09-22T05:04:30.419Z,517
2022-09-22T05:05:30.406Z,541
2022-09-22T05:06:30.399Z,562
2022-09-22T05:07:30.399Z,586
2022-09-22T05:08:30.399Z,586
2022-09-22T05:09:30.420Z,611
2022-09-22T05:10:30.407Z,626
2022-09-22T05:11:30.422Z,635
2022-09-22T05:12:30.407Z,623
2022-09-22T05:13:30.399Z,626
2022-09-22T05:14:30.419Z,645
2022-09-22T05:15:30.415Z,659
2022-09-22T05:16:30.439Z,680
2022-09-22T05:17:30.411Z,700
2022-09-22T05:18:30.414Z,715
2022-09-22T05:19:30.415Z,731
2022-09-22T05:20:30.409Z,733
2022-09-22T05:21:30.410Z,728
2022-09-22T05:22:30.412Z,729
2022-09-22T05:23:30.433Z,742
2022-09-22T05:24:30.427Z,759
2022-09-22T05:25:30.416Z,774
2022-09-22T05:26:30.494Z,796
2022-09-22T05:27:30.417Z,822
2022-09-22T05:28:30.403Z,846
2022-09-22T05:29:30.416Z,858
2022-09-22T05:30:30.406Z,869
2022-09-22T05:31:30.443Z,864
2022-09-22T05:32:30.408Z,844
2022-09-22T05:33:30.408Z,827
2022-09-22T05:34:30.418Z,790
2022-09-22T05:35:35.808Z,766
2022-09-22T05:36:30.413Z,768
2022-09-22T05:37:30.419Z,746
2022-09-22T05:38:30.415Z,718
2022-09-22T05:39:30.424Z,717
2022-09-22T05:40:30.485Z,731
2022-09-22T05:41:30.423Z,722
2022-09-22T05:42:30.404Z,753
2022-09-22T05:43:30.409Z,801
2022-09-22T05:44:30.431Z,871
2022-09-22T05:45:30.435Z,941
2022-09-22T05:46:30.405Z,999
2022-09-22T05:47:30.401Z,1085
2022-09-22T05:48:31.484Z,1172
2022-09-22T05:49:30.429Z,1253
2022-09-22T05:50:30.400Z,1341
2022-09-22T05:51:30.403Z,1415
2022-09-22T05:52:30.404Z,1481
2022-09-22T05:53:30.409Z,1564
2022-09-22T05:54:30.426Z,1642
2022-09-22T05:55:30.421Z,1706
2022-09-22T05:56:30.420Z,1741
2022-09-22T05:57:30.412Z,1767
2022-09-22T05:58:30.426Z,1784
2022-09-22T05:59:30.421Z,1789
2022-09-22T06:00:30.427Z,1778
2022-09-22T06:01:30.460Z,1763
2022-09-22T06:02:30.421Z,1762
2022-09-22T06:03:30.410Z,1762
2022-09-22T06:04:30.424Z,1778
2022-09-22T06:05:30.419Z,1804
2022-09-22T06:06:30.413Z,1828
2022-09-22T06:07:30.427Z,1857
2022-09-22T06:08:30.410Z,1857
2022-09-22T06:09:30.414Z,1916
2022-09-22T06:10:30.407Z,1944
2022-09-22T06:11:30.415Z,1974
2022-09-22T06:12:30.399Z,2023
2022-09-22T06:13:30.411Z,2068
2022-09-22T06:14:30.431Z,2112
2022-09-22T06:15:30.408Z,2163
2022-09-22T06:16:30.485Z,2210
2022-09-22T06:17:30.399Z,2285
2022-09-22T06:18:30.406Z,2372
2022-09-22T06:19:30.424Z,2475
2022-09-22T06:20:30.407Z,2571
2022-09-22T06:21:30.469Z,2678
2022-09-22T06:22:30.402Z,3116
2022-09-22T06:23:30.395Z,3848
2022-09-22T06:24:30.414Z,8421
2022-09-22T06:25:30.399Z,8981
2022-09-22T06:26:30.420Z,9122
2022-09-22T06:27:30.405Z,9404
2022-09-22T06:28:30.412Z,9658
2022-09-22T06:29:30.415Z,9649
2022-09-22T06:30:30.419Z,9315
2022-09-22T06:31:30.487Z,9833
2022-09-22T06:32:30.416Z,9973
2022-09-22T06:33:30.413Z,10167
2022-09-22T06:34:30.418Z,10176
2022-09-22T06:35:30.424Z,10191
2022-09-22T06:36:30.412Z,10170
2022-09-22T06:37:30.405Z,10334
2022-09-22T06:38:30.400Z,10519
2022-09-22T06:39:30.434Z,10666
2022-09-22T06:40:30.479Z,10668
2022-09-22T06:41:30.423Z,10758
2022-09-22T06:42:30.411Z,10992
2022-09-22T06:43:30.403Z,10989
2022-09-22T06:44:30.418Z,11049
2022-09-22T06:45:30.453Z,11245
2022-09-22T06:46:30.406Z,11331
2022-09-22T06:47:30.410Z,11597
2022-09-22T06:48:30.404Z,11682
2022-09-22T06:49:30.431Z,11746
2022-09-22T06:50:30.769Z,11964
2022-09-22T06:51:30.411Z,12023
2022-09-22T06:52:30.405Z,12045
2022-09-22T06:53:30.406Z,12037
2022-09-22T06:54:30.411Z,12176
2022-09-22T06:55:30.409Z,12421
2022-09-22T06:56:31.438Z,12248
2022-09-22T06:57:30.395Z,12227
2022-09-22T06:58:42.409Z,11785
2022-09-22T06:59:30.419Z,12627
2022-09-22T07:00:30.573Z,12767
2022-09-22T07:01:30.538Z,12806
2022-09-22T07:02:30.407Z,12850
2022-09-22T07:03:30.404Z,12948
2022-09-22T07:04:30.423Z,12983
2022-09-22T07:05:30.413Z,13333
2022-09-22T07:06:30.409Z,13350
2022-09-22T07:07:30.412Z,13204
2022-09-22T07:08:30.415Z,13204
2022-09-22T07:09:30.423Z,13632
2022-09-22T07:10:30.405Z,13529
2022-09-22T07:11:30.426Z,13521
2022-09-22T07:12:30.412Z,13801
2022-09-22T07:13:30.414Z,13824
2022-09-22T07:14:30.413Z,13777
2022-09-22T07:15:30.405Z,13680
2022-09-22T07:16:30.543Z,13604
2022-09-22T07:17:30.411Z,13293
2022-09-22T07:18:30.403Z,13101
2022-09-22T07:19:30.420Z,13239
2022-09-22T07:20:30.437Z,12931
2022-09-22T07:21:30.414Z,12432
2022-09-22T07:22:30.398Z,11980
2022-09-22T07:23:30.404Z,11532
2022-09-22T07:24:30.417Z,11451
2022-09-22T07:25:30.402Z,11260
2022-09-22T07:26:30.427Z,10998
2022-09-22T07:27:30.437Z,11367
2022-09-22T07:28:30.414Z,11448
2022-09-22T07:29:30.414Z,12006
2022-09-22T07:30:30.491Z,12128
2022-09-22T07:31:30.452Z,10358
2022-09-22T07:32:30.404Z,9267
2022-09-22T07:33:30.410Z,10626
2022-09-22T07:34:30.408Z,8528
2022-09-22T07:35:30.425Z,8038
2022-09-22T07:36:30.416Z,10205
2022-09-22T07:37:30.397Z,9310
2022-09-22T07:38:30.405Z,11501
2022-09-22T07:39:30.412Z,11282
2022-09-22T07:40:30.467Z,6397
2022-09-22T07:41:30.419Z,6311
2022-09-22T07:42:30.408Z,6563
2022-09-22T07:43:30.417Z,6355
2022-09-22T07:44:30.419Z,6318
2022-09-22T07:45:30.410Z,6453
2022-09-22T07:46:30.473Z,6814
2022-09-22T07:47:30.406Z,6902
2022-09-22T07:48:30.402Z,6749
2022-09-22T07:49:30.537Z,6150
2022-09-22T07:50:30.416Z,5662
2022-09-22T07:51:30.399Z,5767
2022-09-22T07:52:30.485Z,6272
2022-09-22T07:53:30.404Z,6582
2022-09-22T07:54:30.474Z,6524
2022-09-22T07:55:30.410Z,6312
2022-09-22T07:56:30.709Z,5879
2022-09-22T07:57:30.398Z,5592
2022-09-22T07:58:30.396Z,5813
2022-09-22T07:59:30.412Z,6086
2022-09-22T08:00:30.438Z,5649
2022-09-22T08:01:30.404Z,5269
2022-09-22T08:02:30.401Z,5137
2022-09-22T08:03:30.412Z,4873
2022-09-22T08:04:30.422Z,4906
2022-09-22T08:05:30.403Z,4991
2022-09-22T08:06:30.401Z,5006
2022-09-22T08:07:30.405Z,5124
2022-09-22T08:08:30.396Z,5124
2022-09-22T08:09:30.570Z,5304
2022-09-22T08:10:30.407Z,5378
2022-09-22T08:11:30.415Z,5413
2022-09-22T08:12:30.408Z,5435
2022-09-22T08:13:30.423Z,5533
2022-09-22T08:14:30.411Z,5645
2022-09-22T08:15:30.400Z,5874
2022-09-22T08:16:30.438Z,6091
2022-09-22T08:17:30.405Z,6171
2022-09-22T08:18:30.403Z,6602
2022-09-22T08:19:30.423Z,7147
2022-09-22T08:20:30.407Z,7715
2022-09-22T08:21:30.405Z,7826
2022-09-22T08:22:30.415Z,7988
2022-09-22T08:23:30.408Z,8515
2022-09-22T08:24:30.417Z,9204
2022-09-22T08:25:30.448Z,9835
2022-09-22T08:26:30.420Z,10847
2022-09-22T08:27:30.405Z,15840
2022-09-22T08:28:30.404Z,14577
2022-09-22T08:29:30.425Z,11967
2022-09-22T08:30:30.407Z,12244
2022-09-22T08:31:30.464Z,11282
2022-09-22T08:32:30.408Z,10581
2022-09-22T08:33:30.407Z,9774
2022-09-22T08:34:30.427Z,9160
2022-09-22T08:35:30.406Z,8270
2022-09-22T08:36:30.419Z,7546
2022-09-22T08:37:30.399Z,7273
2022-09-22T08:38:30.407Z,7251
2022-09-22T08:39:30.422Z,7315
2022-09-22T08:40:30.515Z,7641
2022-09-22T08:41:30.430Z,8056
2022-09-22T08:42:30.409Z,8441
2022-09-22T08:43:30.397Z,8915
2022-09-22T08:44:30.439Z,9601
2022-09-22T08:45:30.404Z,10452
2022-09-22T08:46:30.497Z,13687
2022-09-22T08:47:30.401Z,11013
2022-09-22T08:48:30.405Z,11962
2022-09-22T08:49:30.424Z,11684
2022-09-22T08:50:30.452Z,9708
2022-09-22T08:51:30.409Z,8657
2022-09-22T08:52:30.412Z,7700
2022-09-22T08:53:30.398Z,7192
2022-09-22T08:54:30.412Z,7011
2022-09-22T08:55:30.406Z,6959
2022-09-22T08:56:30.430Z,6493
2022-09-22T08:57:30.401Z,6042
2022-09-22T08:58:30.405Z,5736
2022-09-22T08:59:30.423Z,5378
2022-09-22T09:00:30.406Z,5048
2022-09-22T09:01:30.496Z,5162
2022-09-22T09:02:30.433Z,5242
2022-09-22T09:03:30.403Z,5269
2022-09-22T09:04:30.424Z,5452
2022-09-22T09:05:30.400Z,4643
2022-09-22T09:06:30.400Z,4381
2022-09-22T09:07:30.414Z,4106
2022-09-22T09:08:30.414Z,4106
2022-09-22T09:09:30.448Z,4248
2022-09-22T09:10:30.400Z,4005
2022-09-22T09:11:30.412Z,3782
2022-09-22T09:12:30.464Z,3769
2022-09-22T09:13:30.397Z,3728
2022-09-22T09:14:30.416Z,3636
2022-09-22T09:15:30.407Z,3531
2022-09-22T09:16:32.966Z,3562
2022-09-22T09:17:30.457Z,3741
2022-09-22T09:18:30.404Z,3964
2022-09-22T09:19:30.419Z,4263
2022-09-22T09:20:30.408Z,4744
2022-09-22T09:21:30.405Z,5041
2022-09-22T09:22:30.400Z,5194
2022-09-22T09:25:30.397Z,5343
2022-09-22T09:26:30.417Z,5282
2022-09-22T09:27:30.406Z,5070
2022-09-22T09:28:30.400Z,4783
2022-09-22T09:29:30.411Z,4254
2022-09-22T09:30:30.419Z,4377
2022-09-22T09:31:30.430Z,4233
2022-09-22T09:32:30.403Z,4117
2022-09-22T09:33:30.412Z,4364
2022-09-22T09:34:30.410Z,4816
2022-09-22T09:35:30.418Z,4974
2022-09-22T09:36:30.394Z,5929
2022-09-22T09:37:30.429Z,11225
2022-09-22T09:38:30.400Z,14246
2022-09-22T09:39:30.423Z,15989
2022-09-22T09:40:30.455Z,14498
2022-09-22T09:41:30.431Z,12122
2022-09-22T09:42:30.402Z,11350
2022-09-22T09:43:30.398Z,8891
2022-09-22T09:44:30.438Z,5231
2022-09-22T09:45:30.403Z,4814
2022-09-22T09:46:30.469Z,4738
2022-09-22T09:47:30.398Z,4919
2022-09-22T09:48:30.401Z,5015
2022-09-22T09:49:30.416Z,4936
2022-09-22T09:50:30.402Z,4917
2022-09-22T09:51:30.409Z,4842
2022-09-22T09:52:30.405Z,4843
2022-09-22T09:53:30.395Z,5043
2022-09-22T09:54:30.420Z,5170
2022-09-22T09:55:30.414Z,5444
2022-09-22T09:56:30.411Z,5715
2022-09-22T09:57:30.404Z,6008
2022-09-22T09:58:30.400Z,6383
2022-09-22T09:59:30.430Z,6919
2022-09-22T10:00:30.414Z,7612
2022-09-22T10:01:30.429Z,8298
2022-09-22T10:02:30.446Z,8882
2022-09-22T10:03:30.416Z,9603
2022-09-22T10:04:30.417Z,10257
2022-09-22T10:05:30.407Z,10928
2022-09-22T10:06:30.405Z,11204
2022-09-22T10:08:30.433Z,12246
2022-09-22T10:09:30.409Z,16999
2022-09-22T10:10:30.404Z,17060
2022-09-22T10:11:30.412Z,15678
2022-09-22T10:12:30.394Z,16046
2022-09-22T10:13:30.409Z,15134
2022-09-22T10:14:30.434Z,13337
2022-09-22T10:15:30.497Z,12377
2022-09-22T10:16:30.409Z,12742
2022-09-22T10:17:30.405Z,13024
2022-09-22T10:18:30.396Z,12579
2022-09-22T10:19:30.416Z,12260
2022-09-22T10:20:30.407Z,13322
2022-09-22T10:21:30.403Z,11486
2022-09-22T10:22:30.412Z,10637
2022-09-22T10:23:30.409Z,9503
2022-09-22T10:24:30.415Z,8607
2022-09-22T10:25:30.404Z,8176
2022-09-22T10:26:30.417Z,7754
2022-09-22T10:27:30.399Z,7490
2022-09-22T10:28:30.406Z,7330
2022-09-22T10:29:30.412Z,7262
2022-09-22T10:30:30.400Z,7389
2022-09-22T10:31:30.486Z,7464
2022-09-22T10:32:30.403Z,7418
2022-09-22T10:33:30.401Z,7347
2022-09-22T10:34:30.421Z,7029
2022-09-22T10:35:30.400Z,6722
2022-09-22T10:36:30.400Z,6484
2022-09-22T10:37:30.411Z,6331
2022-09-22T10:38:30.476Z,6322
2022-09-22T10:39:30.421Z,6399
2022-09-22T10:40:30.476Z,6530
2022-09-22T10:41:30.417Z,6701
2022-09-22T10:42:30.407Z,7046
2022-09-22T10:43:30.404Z,7441
2022-09-22T10:44:40.149Z,7839
2022-09-22T10:45:30.422Z,8205
2022-09-22T10:46:30.413Z,8237
2022-09-22T10:47:30.399Z,8467
2022-09-22T10:48:30.406Z,8683
2022-09-22T10:49:30.412Z,8921
2022-09-22T10:50:30.404Z,9109
2022-09-22T10:51:30.425Z,9282
2022-09-22T10:52:30.403Z,9418
2022-09-22T10:53:30.469Z,9512
2022-09-22T10:54:30.412Z,9632
2022-09-22T10:55:30.396Z,10045
2022-09-22T10:56:30.417Z,10572
2022-09-22T10:57:30.415Z,11044
2022-09-22T10:58:30.392Z,10917
2022-09-22T10:59:30.455Z,10373
2022-09-22T11:00:31.495Z,10251
2022-09-22T11:01:30.455Z,10332
2022-09-22T11:02:30.399Z,10609
2022-09-22T11:03:30.397Z,11046
2022-09-22T11:04:30.562Z,10699
2022-09-22T11:05:30.399Z,10102
2022-09-22T11:06:30.407Z,10113
2022-09-22T11:07:30.397Z,10613
2022-09-22T11:08:30.418Z,10613
2022-09-22T11:09:30.487Z,13962
2022-09-22T11:10:30.405Z,17445
2022-09-22T11:11:31.247Z,14985
2022-09-22T11:12:30.408Z,11156
2022-09-22T11:13:30.395Z,10209
2022-09-22T11:14:30.411Z,10251
2022-09-22T11:15:30.476Z,9711
2022-09-22T11:16:30.409Z,9413
2022-09-22T11:17:30.406Z,9324
2022-09-22T11:18:30.411Z,9778
2022-09-22T11:19:30.416Z,11226
2022-09-22T11:20:30.411Z,16194
2022-09-22T11:21:30.402Z,19421
2022-09-22T11:22:30.411Z,19102
2022-09-22T11:23:30.398Z,17303
2022-09-22T11:24:30.408Z,13903
2022-09-22T11:25:30.402Z,16712
2022-09-22T11:26:30.415Z,19639
2022-09-22T11:27:30.410Z,18881
2022-09-22T11:28:30.411Z,19772
2022-09-22T11:29:30.418Z,19810
2022-09-22T11:30:30.395Z,19727
2022-09-22T11:31:30.405Z,19650
2022-09-22T11:32:30.408Z,19615
2022-09-22T11:33:30.400Z,19265
2022-09-22T11:34:30.411Z,19554
2022-09-22T11:35:30.401Z,19480
2022-09-22T11:36:30.400Z,19473
2022-09-22T11:37:30.404Z,19419
2022-09-22T11:38:30.406Z,19407
2022-09-22T11:39:30.417Z,19390
2022-09-22T11:40:30.456Z,18706
2022-09-22T11:41:30.460Z,19296
2022-09-22T11:42:30.397Z,19268
2022-09-22T11:43:30.399Z,19193
2022-09-22T11:44:56.600Z,19202
2022-09-22T11:45:55.452Z,19147
2022-09-22T11:46:55.371Z,19147
2022-09-22T11:47:55.372Z,19008
2022-09-22T11:48:55.368Z,19091
2022-09-22T11:49:55.386Z,18988
2022-09-22T11:50:55.368Z,18949
2022-09-22T11:51:55.372Z,18938
2022-09-22T11:52:58.461Z,18843
2022-09-22T11:53:55.366Z,18745
2022-09-22T11:55:00.562Z,18627
2022-09-22T11:55:55.366Z,18603
2022-09-22T11:56:55.381Z,18616
2022-09-22T11:57:55.378Z,18592
2022-09-22T11:58:55.358Z,18909
2022-09-22T11:59:55.377Z,13494
2022-09-22T12:00:55.363Z,13125
2022-09-22T12:01:55.364Z,15735
2022-09-22T12:02:56.050Z,11671
2022-09-22T12:03:55.359Z,12100
2022-09-22T12:04:55.385Z,11127
2022-09-22T12:05:55.358Z,11660
2022-09-22T12:06:55.364Z,12089
2022-09-22T12:07:55.357Z,12089
2022-09-22T12:09:55.384Z,15560
2022-09-22T12:10:55.407Z,14625
2022-09-22T12:11:55.379Z,14765
2022-09-22T12:12:55.357Z,17202
2022-09-22T12:13:55.367Z,17169
2022-09-22T12:14:55.361Z,16279
2022-09-22T12:15:55.559Z,15034
2022-09-22T12:16:55.355Z,18242
2022-09-22T12:17:55.373Z,18660
2022-09-22T12:18:55.432Z,17350
2022-09-22T12:19:55.379Z,21652
2022-09-22T12:20:55.359Z,22627
2022-09-22T12:25:55.366Z,18496
2022-09-22T12:26:55.365Z,19620
2022-09-22T12:27:55.351Z,18092
2022-09-22T12:28:55.359Z,18360
2022-09-22T12:29:55.347Z,20391
2022-09-22T12:30:55.412Z,14688
2022-09-22T12:31:55.358Z,13506
2022-09-22T12:32:55.332Z,13506
2022-09-22T12:33:55.339Z,13617
2022-09-22T12:34:55.336Z,13599
2022-09-22T12:35:55.371Z,14520
2022-09-22T12:36:55.353Z,15250
2022-09-22T12:37:55.341Z,14819
2022-09-22T12:38:55.351Z,15600
2022-09-22T12:39:55.355Z,14447
2022-09-22T12:40:55.344Z,13956
2022-09-22T12:41:57.587Z,14546
2022-09-22T12:42:55.339Z,14898
2022-09-22T12:43:55.337Z,16581
2022-09-22T12:44:55.336Z,16544
2022-09-22T12:45:55.402Z,17278
2022-09-22T12:46:55.342Z,14253
2022-09-22T12:47:55.349Z,9326
2022-09-22T12:48:55.335Z,8712
2022-09-22T12:49:55.362Z,8165
2022-09-22T12:50:55.379Z,7811
2022-09-22T12:51:55.359Z,7488
2022-09-22T12:52:55.351Z,7208
2022-09-22T12:53:55.347Z,7028
2022-09-22T12:54:55.347Z,6961
2022-09-22T12:55:55.362Z,7208
2022-09-22T12:56:55.445Z,7459
2022-09-22T12:57:55.355Z,8064
2022-09-22T12:58:55.360Z,8397
2022-09-22T12:59:55.355Z,8541
2022-09-22T13:00:55.400Z,9129
2022-09-22T13:01:55.450Z,10218
2022-09-22T13:02:55.341Z,11230
2022-09-22T13:03:55.354Z,11326
2022-09-22T13:04:55.351Z,13521
2022-09-22T13:05:55.363Z,10972
2022-09-22T13:06:55.361Z,17075
2022-09-22T13:07:55.349Z,17075
2022-09-22T13:08:55.345Z,11859
2022-09-22T13:09:55.353Z,12356
2022-09-22T13:10:55.364Z,14048
2022-09-22T13:11:55.363Z,10403
2022-09-22T13:12:55.352Z,10574
2022-09-22T13:13:55.348Z,16155
2022-09-22T13:14:55.359Z,17397
2022-09-22T13:15:55.362Z,13812
2022-09-22T13:16:55.402Z,13326
2022-09-22T13:17:55.353Z,12200
2022-09-22T13:18:55.388Z,13483
2022-09-22T13:19:55.353Z,12531
2022-09-22T13:20:55.364Z,12032
2022-09-22T13:21:55.344Z,14295
2022-09-22T13:22:55.349Z,11991
2022-09-22T13:23:55.349Z,10946
2022-09-22T13:24:55.355Z,15949
2022-09-22T13:25:55.372Z,19477
2022-09-22T13:26:55.369Z,15066
2022-09-22T13:27:55.396Z,12904
2022-09-22T13:28:55.352Z,11149
2022-09-22T13:29:55.350Z,11044
2022-09-22T13:30:55.391Z,19556
2022-09-22T13:31:55.346Z,17991
2022-09-22T13:32:55.353Z,13055
2022-09-22T13:33:55.381Z,13862
2022-09-22T13:34:55.362Z,18933
2022-09-22T13:35:55.367Z,19912
2022-09-22T13:36:55.352Z,18643
2022-09-22T13:37:55.352Z,19584
2022-09-22T13:38:55.379Z,18417
2022-09-22T13:39:55.345Z,18044
2022-09-22T13:40:55.357Z,18922
2022-09-22T13:41:55.361Z,18879
2022-09-22T13:42:55.355Z,18879
2022-09-22T13:43:55.352Z,19112
2022-09-22T13:44:55.353Z,19126
2022-09-22T13:45:55.430Z,19475
2022-09-22T13:46:55.328Z,19204
2022-09-22T13:47:55.332Z,18861
2022-09-22T13:48:55.336Z,18559
2022-09-22T13:49:55.347Z,18310
2022-09-22T13:50:55.352Z,17632